createdAt,value
2023-01-24T00:01:26.676Z,79.86
2023-01-24T00:03:56.559Z,79.67
2023-01-24T00:06:24.506Z,80.08
2023-01-24T00:08:52.522Z,79.42
2023-01-24T00:11:20.450Z,79.80
2023-01-24T00:13:48.323Z,79.87
2023-01-24T00:16:18.232Z,79.58
2023-01-24T00:18:46.691Z,79.58
2023-01-24T00:21:17.708Z,78.96
2023-01-24T00:23:47.406Z,79.47
2023-01-24T00:26:16.633Z,79.23
2023-01-24T00:28:48.251Z,79.07
2023-01-24T00:31:16.840Z,78.85
2023-01-24T00:33:44.880Z,78.91
2023-01-24T00:36:13.590Z,79.19
2023-01-24T00:38:42.960Z,79.04
2023-01-24T00:41:11.040Z,79.21
2023-01-24T00:43:38.982Z,79.26
2023-01-24T00:46:07.814Z,79.46
2023-01-24T00:48:36.031Z,79.15
2023-01-24T00:51:04.711Z,79.27
2023-01-24T00:53:32.733Z,79.32
2023-01-24T00:56:02.483Z,79.13
2023-01-24T00:58:30.446Z,79.26
2023-01-24T01:01:01.343Z,79.52
2023-01-24T01:03:29.485Z,79.00
2023-01-24T01:06:01.476Z,79.11
2023-01-24T01:08:29.731Z,79.05
2023-01-24T01:10:57.553Z,79.43
2023-01-24T01:13:27.119Z,79.28
2023-01-24T01:16:02.209Z,79.07
2023-01-24T01:18:30.108Z,79.14
2023-01-24T01:20:57.973Z,79.48
2023-01-24T01:23:25.968Z,79.33
2023-01-24T01:25:54.046Z,79.19
2023-01-24T01:28:21.956Z,78.84
2023-01-24T01:30:54.788Z,78.96
2023-01-24T01:33:23.189Z,78.87
2023-01-24T01:35:52.407Z,79.01
2023-01-24T01:38:21.669Z,79.73
2023-01-24T01:40:49.591Z,79.21
2023-01-24T01:43:19.922Z,79.44
2023-01-24T01:45:49.061Z,79.60
2023-01-24T01:48:23.102Z,79.14
2023-01-24T01:50:58.883Z,79.51
2023-01-24T01:53:32.677Z,79.17
2023-01-24T01:56:04.725Z,79.51
2023-01-24T01:58:33.690Z,79.39
2023-01-24T02:01:01.554Z,79.13
2023-01-24T02:03:40.614Z,78.69
2023-01-24T02:06:30.787Z,78.94
2023-01-24T02:09:00.016Z,78.68
2023-01-24T02:11:41.909Z,78.80
2023-01-24T02:14:30.406Z,78.98
2023-01-24T02:16:58.759Z,78.77
2023-01-24T02:19:43.554Z,78.51
2023-01-24T02:22:17.398Z,79.01
2023-01-24T02:24:54.335Z,78.34
2023-01-24T02:27:23.668Z,78.36
2023-01-24T02:29:52.032Z,78.45
2023-01-24T02:32:21.579Z,78.12
2023-01-24T02:34:50.067Z,78.18
2023-01-24T02:37:21.763Z,79.38
2023-01-24T02:39:55.756Z,78.93
2023-01-24T02:42:27.833Z,79.06
2023-01-24T02:45:06.093Z,79.12
2023-01-24T02:47:39.044Z,79.37
2023-01-24T02:50:09.264Z,79.19
2023-01-24T02:52:55.100Z,78.92
2023-01-24T02:55:24.385Z,79.03
2023-01-24T02:58:07.443Z,78.79
2023-01-24T03:00:39.534Z,78.73
2023-01-24T03:03:09.847Z,78.68
2023-01-24T03:05:57.332Z,78.88
2023-01-24T03:08:33.708Z,78.85
2023-01-24T03:11:04.256Z,78.97
2023-01-24T03:13:52.980Z,78.89
2023-01-24T03:16:40.049Z,78.41
2023-01-24T03:19:25.706Z,78.79
2023-01-24T03:22:11.230Z,79.01
2023-01-24T03:24:56.677Z,79.33
2023-01-24T03:27:42.486Z,79.35
2023-01-24T03:30:32.348Z,79.15
2023-01-24T03:33:18.314Z,79.46
2023-01-24T03:35:54.596Z,79.32
2023-01-24T03:38:43.348Z,79.64
2023-01-24T03:41:12.343Z,79.65
2023-01-24T03:43:42.338Z,79.64
2023-01-24T03:46:12.895Z,79.48
2023-01-24T03:48:51.085Z,79.75
2023-01-24T03:51:39.573Z,79.91
2023-01-24T03:54:08.665Z,79.65
2023-01-24T03:56:52.965Z,79.99
2023-01-24T03:59:22.984Z,79.90
2023-01-24T04:01:52.371Z,79.58
2023-01-24T04:04:48.001Z,79.93
2023-01-24T04:07:26.518Z,79.65
2023-01-24T04:10:01.857Z,80.31
2023-01-24T04:12:34.570Z,79.94
2023-01-24T04:15:03.413Z,79.56
2023-01-24T04:17:33.046Z,79.42
2023-01-24T04:20:01.089Z,79.35
2023-01-24T04:22:28.959Z,80.00
2023-01-24T04:24:59.650Z,79.27
2023-01-24T04:27:32.328Z,79.87
2023-01-24T04:30:12.034Z,79.69
2023-01-24T04:32:43.830Z,79.81
2023-01-24T04:35:26.727Z,79.47
2023-01-24T04:38:00.299Z,79.68
2023-01-24T04:40:42.366Z,79.80
2023-01-24T04:43:10.667Z,79.90
2023-01-24T04:45:40.836Z,80.25
2023-01-24T04:48:12.437Z,79.77
2023-01-24T04:50:41.210Z,79.86
2023-01-24T04:53:09.138Z,79.42
2023-01-24T04:55:37.531Z,79.64
2023-01-24T04:58:05.602Z,79.27
2023-01-24T05:00:33.874Z,79.72
2023-01-24T05:03:01.836Z,78.99
2023-01-24T05:05:31.526Z,79.39
2023-01-24T05:07:59.409Z,79.58
2023-01-24T05:10:27.586Z,78.88
2023-01-24T05:12:55.447Z,79.70
2023-01-24T05:15:25.057Z,79.34
2023-01-24T05:17:53.778Z,79.95
2023-01-24T05:20:24.941Z,79.89
2023-01-24T05:22:56.817Z,79.56
2023-01-24T05:25:26.792Z,79.48
2023-01-24T05:27:55.751Z,79.10
2023-01-24T05:30:24.702Z,79.81
2023-01-24T05:32:57.654Z,79.51
2023-01-24T05:35:26.195Z,78.94
2023-01-24T05:37:56.582Z,79.00
2023-01-24T05:40:25.968Z,79.11
2023-01-24T05:42:53.893Z,79.56
2023-01-24T05:45:23.051Z,79.36
2023-01-24T05:47:51.500Z,79.63
2023-01-24T05:50:20.833Z,79.31
2023-01-24T05:53:10.138Z,79.00
2023-01-24T05:55:38.099Z,79.48
2023-01-24T05:58:06.037Z,79.49
2023-01-24T06:00:39.678Z,79.79
2023-01-24T06:03:29.145Z,79.49
2023-01-24T06:05:58.316Z,78.89
2023-01-24T06:08:31.458Z,79.08
2023-01-24T06:11:04.482Z,79.48
2023-01-24T06:13:32.947Z,79.19
2023-01-24T06:16:06.409Z,79.25
2023-01-24T06:18:35.260Z,79.63
2023-01-24T06:21:07.923Z,79.34
2023-01-24T06:23:37.781Z,79.28
2023-01-24T06:26:10.259Z,79.48
2023-01-24T06:28:38.433Z,79.47
2023-01-24T06:31:13.461Z,79.56
2023-01-24T06:33:51.656Z,79.27
2023-01-24T06:36:31.377Z,79.23
2023-01-24T06:39:01.321Z,79.05
2023-01-24T06:41:29.768Z,78.90
2023-01-24T06:43:58.158Z,78.63
2023-01-24T06:46:26.145Z,78.71
2023-01-24T06:48:54.056Z,78.87
2023-01-24T06:51:22.592Z,78.39
2023-01-24T06:53:50.451Z,78.39
2023-01-24T06:56:19.807Z,78.61
2023-01-24T06:58:48.304Z,78.62
2023-01-24T07:01:16.235Z,77.99
2023-01-24T07:03:44.095Z,77.45
2023-01-24T07:06:12.012Z,77.10
2023-01-24T07:08:39.900Z,77.32
2023-01-24T07:11:07.757Z,77.45
2023-01-24T07:13:37.025Z,77.54
2023-01-24T07:16:05.305Z,77.59
2023-01-24T07:18:33.787Z,77.52
2023-01-24T07:21:02.206Z,77.17
2023-01-24T07:23:32.280Z,76.68
2023-01-24T07:26:01.406Z,76.86
2023-01-24T07:28:29.299Z,76.27
2023-01-24T07:30:59.011Z,77.02
2023-01-24T07:33:26.872Z,76.74
2023-01-24T07:36:02.177Z,76.37
2023-01-24T07:38:31.599Z,76.82
2023-01-24T07:40:59.665Z,76.95
2023-01-24T07:43:35.167Z,76.53
2023-01-24T07:46:07.543Z,76.74
2023-01-24T07:48:36.064Z,76.24
2023-01-24T07:51:07.320Z,76.38
2023-01-24T07:53:36.402Z,76.50
2023-01-24T07:56:06.971Z,77.04
2023-01-24T07:58:36.673Z,76.67
2023-01-24T08:01:04.797Z,76.66
2023-01-24T08:03:34.587Z,76.64
2023-01-24T08:06:05.329Z,76.39
2023-01-24T08:08:33.169Z,76.95
2023-01-24T08:11:00.955Z,76.59
2023-01-24T08:13:28.756Z,76.24
2023-01-24T08:15:56.549Z,76.23
2023-01-24T08:18:24.326Z,76.40
2023-01-24T08:20:56.308Z,76.40
2023-01-24T08:23:24.352Z,76.39
2023-01-24T08:25:52.396Z,76.34
2023-01-24T08:28:20.440Z,76.64
2023-01-24T08:30:48.445Z,76.72
2023-01-24T08:33:18.837Z,76.62
2023-01-24T08:35:47.276Z,76.70
2023-01-24T08:38:17.646Z,76.76
2023-01-24T08:40:49.819Z,77.04
2023-01-24T09:28:03.112Z,74.59
2023-01-24T09:30:31.180Z,74.42
2023-01-24T09:32:59.025Z,74.32
2023-01-24T09:35:26.868Z,74.55
2023-01-24T09:37:54.697Z,74.88
2023-01-24T09:40:25.950Z,74.87
2023-01-24T09:43:02.542Z,74.33
2023-01-24T09:45:36.648Z,73.77
2023-01-24T09:48:08.143Z,73.38
2023-01-24T09:50:42.773Z,73.44
2023-01-24T09:53:18.638Z,73.65
2023-01-24T09:55:48.004Z,73.36
2023-01-24T09:58:32.570Z,73.96
2023-01-24T10:01:07.784Z,73.36
2023-01-24T10:03:37.755Z,73.25
2023-01-24T10:06:15.799Z,72.94
2023-01-24T10:08:53.811Z,72.65
2023-01-24T10:11:30.982Z,72.43
2023-01-24T10:14:21.727Z,72.27
2023-01-24T10:17:22.927Z,71.94
2023-01-24T10:20:06.834Z,71.57
2023-01-24T10:22:56.943Z,71.54
2023-01-24T10:25:28.271Z,72.01
2023-01-24T10:27:59.454Z,71.97
2023-01-24T10:30:36.299Z,72.05
2023-01-24T10:33:14.387Z,71.92
2023-01-24T10:35:54.173Z,71.47
2023-01-24T10:38:22.170Z,71.75
2023-01-24T10:40:51.907Z,71.79
2023-01-24T10:43:21.642Z,71.07
2023-01-24T10:45:59.370Z,70.94
2023-01-24T10:48:40.796Z,71.03
2023-01-24T10:51:14.484Z,70.96
2023-01-24T10:53:42.536Z,70.79
2023-01-24T10:56:10.799Z,71.15
2023-01-24T10:58:42.538Z,70.91
2023-01-24T11:01:19.654Z,70.67
2023-01-24T11:03:50.669Z,70.89
2023-01-24T11:06:25.817Z,71.14
2023-01-24T11:09:03.132Z,70.93
2023-01-24T11:11:34.446Z,71.25
2023-01-24T11:14:04.158Z,71.25
2023-01-24T11:16:35.935Z,71.97
2023-01-24T11:19:07.502Z,71.40
2023-01-24T11:21:53.523Z,71.41
2023-01-24T11:24:22.829Z,71.03
2023-01-24T11:26:57.729Z,71.94
2023-01-24T11:29:27.677Z,71.49
2023-01-24T11:32:01.700Z,71.09
2023-01-24T11:34:52.732Z,70.94
2023-01-24T11:37:43.327Z,71.32
2023-01-24T11:40:30.500Z,71.19
2023-01-24T11:43:13.109Z,70.35
2023-01-24T11:45:56.919Z,71.08
2023-01-24T11:48:32.865Z,70.59
2023-01-24T11:51:14.031Z,70.46
2023-01-24T11:53:54.897Z,69.73
2023-01-24T11:56:33.465Z,70.00
2023-01-24T11:59:36.680Z,70.23
2023-01-24T12:02:25.239Z,70.03
2023-01-24T12:05:11.008Z,69.89
2023-01-24T12:07:51.900Z,68.93
2023-01-24T12:10:27.050Z,69.94
2023-01-24T12:13:05.057Z,69.89
2023-01-24T12:15:40.527Z,69.13
2023-01-24T12:18:22.099Z,69.57
2023-01-24T12:20:59.799Z,68.96
2023-01-24T12:23:39.430Z,69.16
2023-01-24T12:26:15.429Z,69.51
2023-01-24T12:28:53.201Z,69.92
2023-01-24T12:31:30.130Z,69.02
2023-01-24T12:34:03.180Z,69.50
2023-01-24T12:36:37.724Z,69.88
2023-01-24T12:39:15.996Z,69.87
2023-01-24T12:41:49.461Z,70.05
2023-01-24T12:44:28.027Z,69.24
2023-01-24T12:47:10.825Z,69.62
2023-01-24T12:49:47.910Z,69.08
2023-01-24T12:52:24.616Z,68.65
2023-01-24T12:54:58.725Z,69.16
2023-01-24T12:57:31.380Z,68.79
2023-01-24T13:00:01.302Z,67.80
2023-01-24T13:02:46.125Z,68.01
2023-01-24T13:05:29.817Z,67.90
2023-01-24T13:08:10.964Z,67.71
2023-01-24T13:10:52.909Z,67.70
2023-01-24T13:13:25.816Z,67.44
2023-01-24T13:16:08.074Z,67.05
2023-01-24T13:18:50.665Z,67.29
2023-01-24T13:21:26.524Z,66.78
2023-01-24T13:24:08.411Z,66.81
2023-01-24T13:26:52.339Z,66.74
2023-01-24T13:29:33.483Z,65.51
2023-01-24T13:32:09.006Z,65.09
2023-01-24T13:34:43.462Z,65.19
2023-01-24T13:37:20.424Z,64.87
2023-01-24T13:39:49.502Z,64.95
2023-01-24T13:42:24.484Z,64.67
2023-01-24T13:44:52.896Z,64.92
2023-01-24T13:47:34.253Z,64.54
2023-01-24T13:50:21.186Z,64.59
2023-01-24T13:52:51.357Z,64.70
2023-01-24T13:55:58.512Z,64.35
2023-01-24T13:58:29.788Z,65.13
2023-01-24T14:01:00.967Z,64.98
2023-01-24T14:03:32.632Z,65.72
2023-01-24T14:06:13.717Z,65.30
2023-01-24T14:09:04.171Z,65.50
2023-01-24T14:11:39.148Z,65.33
2023-01-24T14:14:32.038Z,64.72
2023-01-24T14:17:22.658Z,65.40
2023-01-24T14:19:51.789Z,64.79
2023-01-24T14:22:25.188Z,65.56
2023-01-24T14:25:05.584Z,65.28
2023-01-24T14:27:38.768Z,65.53
2023-01-24T14:30:36.731Z,66.09
2023-01-24T14:33:15.882Z,66.38
2023-01-24T14:35:56.942Z,66.25
2023-01-24T14:38:26.973Z,67.16
2023-01-24T14:40:56.391Z,67.56
2023-01-24T14:43:30.095Z,67.88
2023-01-24T14:45:59.527Z,68.02
2023-01-24T14:48:27.657Z,68.40
2023-01-24T14:51:00.452Z,67.41
2023-01-24T14:53:31.088Z,67.78
2023-01-24T14:56:03.938Z,68.09
2023-01-24T14:58:31.945Z,68.65
2023-01-24T15:01:03.243Z,68.88
2023-01-24T15:03:32.971Z,69.14
2023-01-24T15:06:02.940Z,69.17
2023-01-24T15:08:32.292Z,69.13
2023-01-24T15:11:04.029Z,68.95
2023-01-24T15:13:36.008Z,69.77
2023-01-24T15:16:07.435Z,69.87
2023-01-24T15:18:42.974Z,69.98
2023-01-24T15:21:26.535Z,70.18
2023-01-24T15:23:56.919Z,69.42
2023-01-24T15:26:37.902Z,69.30
2023-01-24T15:29:38.781Z,69.37
2023-01-24T15:32:24.161Z,69.71
2023-01-24T15:34:52.320Z,69.52
2023-01-24T15:37:20.262Z,69.94
2023-01-24T15:39:48.223Z,69.56
2023-01-24T15:42:35.154Z,69.42
2023-01-24T15:45:04.406Z,69.51
2023-01-24T15:47:50.456Z,70.03
2023-01-24T15:50:37.830Z,69.78
2023-01-24T15:53:24.847Z,69.98
2023-01-24T15:55:54.174Z,70.29
2023-01-24T15:58:22.083Z,70.24
2023-01-24T16:00:54.648Z,70.11
2023-01-24T16:03:23.918Z,70.19
2023-01-24T16:05:51.961Z,70.25
2023-01-24T16:08:20.097Z,70.82
2023-01-24T16:10:49.234Z,70.16
2023-01-24T16:13:29.365Z,70.81
2023-01-24T16:15:58.277Z,71.14
2023-01-24T16:18:29.661Z,70.90
2023-01-24T16:20:57.598Z,70.88
2023-01-24T16:23:25.527Z,70.79
2023-01-24T16:25:56.276Z,70.54
2023-01-24T16:28:26.317Z,70.76
2023-01-24T16:30:56.401Z,70.28
2023-01-24T16:33:24.956Z,70.80
2023-01-24T16:35:54.324Z,70.13
2023-01-24T16:38:22.982Z,70.23
2023-01-24T16:40:50.941Z,70.33
2023-01-24T16:43:21.217Z,70.34
2023-01-24T16:45:51.943Z,70.73
2023-01-24T16:48:19.979Z,70.86
2023-01-24T16:50:48.037Z,71.13
2023-01-24T16:53:17.880Z,70.57
2023-01-24T16:55:55.986Z,70.32
2023-01-24T16:58:24.150Z,70.22
2023-01-24T17:00:52.014Z,70.81
2023-01-24T17:03:19.985Z,70.10
2023-01-24T17:05:47.857Z,70.55
2023-01-24T17:08:17.336Z,70.57
2023-01-24T17:10:45.634Z,70.13
2023-01-24T17:13:13.454Z,70.04
2023-01-24T17:15:42.736Z,70.55
2023-01-24T17:18:11.293Z,70.08
2023-01-24T17:20:39.582Z,70.73
2023-01-24T17:23:07.733Z,70.82
2023-01-24T17:25:37.073Z,70.37
2023-01-24T17:28:05.403Z,70.67
2023-01-24T17:30:33.312Z,70.36
2023-01-24T17:33:02.099Z,70.81
2023-01-24T17:35:29.925Z,70.97
2023-01-24T17:37:57.791Z,71.52
2023-01-24T17:40:25.650Z,71.40
2023-01-24T17:42:54.950Z,71.43
2023-01-24T17:45:22.912Z,71.40
2023-01-24T17:47:52.456Z,71.39
2023-01-24T17:50:21.501Z,71.59
2023-01-24T17:52:49.449Z,71.78
2023-01-24T17:55:17.702Z,71.51
2023-01-24T17:57:45.607Z,71.96
2023-01-24T18:00:15.709Z,71.65
2023-01-24T18:02:47.294Z,71.83
2023-01-24T18:05:15.435Z,71.44
2023-01-24T18:07:43.369Z,71.70
2023-01-24T18:10:14.179Z,71.64
2023-01-24T18:12:42.334Z,72.02
2023-01-24T18:15:11.487Z,71.63
2023-01-24T18:17:40.904Z,71.67
2023-01-24T18:20:10.077Z,72.30
2023-01-24T18:22:41.760Z,72.08
2023-01-24T18:25:10.281Z,72.43
2023-01-24T18:27:38.295Z,72.28
2023-01-24T18:30:08.377Z,72.03
2023-01-24T18:32:36.325Z,71.87
2023-01-24T18:35:06.674Z,71.84
2023-01-24T18:37:34.910Z,71.35
2023-01-24T18:40:02.881Z,71.52
2023-01-24T18:42:32.300Z,71.38
2023-01-24T18:45:00.216Z,71.51
2023-01-24T18:47:28.165Z,71.75
2023-01-24T18:49:56.043Z,71.93
2023-01-24T18:52:25.283Z,71.97
2023-01-24T18:54:53.157Z,72.06
2023-01-24T18:57:21.566Z,71.76
2023-01-24T18:59:49.627Z,72.03
2023-01-24T19:02:17.735Z,72.11
2023-01-24T19:04:45.603Z,71.76
2023-01-24T19:07:13.520Z,71.85
2023-01-24T19:09:42.680Z,71.85
2023-01-24T19:12:11.469Z,72.09
2023-01-24T19:14:39.325Z,71.90
2023-01-24T19:17:07.301Z,71.95
2023-01-24T19:19:35.248Z,72.23
2023-01-24T19:22:07.952Z,72.02
2023-01-24T19:24:36.672Z,71.75
2023-01-24T19:27:05.940Z,71.73
2023-01-24T19:29:33.922Z,71.94
2023-01-24T19:32:01.979Z,71.98
2023-01-24T19:34:29.994Z,71.91
2023-01-24T19:36:58.087Z,71.99
2023-01-24T19:39:26.349Z,71.79
2023-01-24T19:41:54.287Z,72.15
2023-01-24T19:44:25.945Z,72.21
2023-01-24T19:46:53.984Z,72.24
2023-01-24T19:49:21.903Z,72.07
2023-01-24T19:51:49.910Z,72.26
2023-01-24T19:54:17.995Z,72.16
2023-01-24T19:56:45.938Z,72.13
2023-01-24T19:59:13.928Z,72.29
2023-01-24T20:01:43.436Z,72.35
2023-01-24T20:04:23.156Z,72.38
2023-01-24T20:06:52.672Z,72.27
2023-01-24T20:09:20.596Z,72.42
2023-01-24T20:11:48.664Z,72.33
2023-01-24T20:14:16.569Z,72.22
2023-01-24T20:16:45.960Z,72.52
2023-01-24T20:19:27.204Z,72.24
2023-01-24T20:21:57.108Z,72.49
2023-01-24T20:24:25.083Z,73.02
2023-01-24T20:26:53.572Z,72.91
2023-01-24T20:29:21.736Z,72.64
2023-01-24T20:31:51.104Z,72.67
2023-01-24T20:34:19.401Z,73.15
2023-01-24T20:36:48.343Z,73.34
2023-01-24T20:39:17.348Z,73.53
2023-01-24T20:41:46.436Z,73.88
2023-01-24T20:44:25.619Z,73.64
2023-01-24T20:46:55.889Z,73.27
2023-01-24T20:49:24.592Z,73.66
2023-01-24T20:51:52.513Z,73.84
2023-01-24T20:54:21.865Z,74.82
2023-01-24T20:56:54.641Z,75.05
2023-01-24T20:59:22.866Z,75.75
2023-01-24T21:01:50.896Z,76.10
2023-01-24T21:04:20.706Z,75.97
2023-01-24T21:06:49.293Z,76.22
2023-01-24T21:09:18.054Z,76.79
2023-01-24T21:11:47.651Z,76.78
2023-01-24T21:14:16.779Z,76.60
2023-01-24T21:16:45.266Z,76.85
2023-01-24T21:19:18.494Z,77.02
2023-01-24T21:21:49.951Z,76.80
2023-01-24T21:24:32.306Z,77.24
2023-01-24T21:27:02.020Z,77.12
2023-01-24T21:29:30.022Z,77.49
2023-01-24T21:31:58.112Z,77.38
2023-01-24T21:34:26.223Z,77.99
2023-01-24T21:36:55.590Z,77.84
2023-01-24T21:39:25.126Z,77.61
2023-01-24T21:41:56.380Z,77.73
2023-01-24T21:44:25.360Z,77.92
2023-01-24T21:46:54.165Z,77.22
2023-01-24T21:49:22.143Z,77.19
2023-01-24T21:51:50.991Z,77.33
2023-01-24T21:54:21.912Z,76.77
2023-01-24T21:57:23.979Z,76.52
2023-01-24T21:59:57.272Z,76.81
2023-01-24T22:02:27.626Z,75.74
2023-01-24T22:04:55.812Z,75.93
2023-01-24T22:07:26.030Z,75.77
2023-01-24T22:09:56.286Z,76.08
2023-01-24T22:12:24.958Z,76.36
2023-01-24T22:14:53.773Z,75.70
2023-01-24T22:17:24.502Z,76.04
2023-01-24T22:19:55.343Z,76.16
2023-01-24T22:23:10.590Z,76.14
2023-01-24T22:25:51.381Z,75.92
2023-01-24T22:28:21.871Z,75.60
2023-01-24T22:30:50.258Z,76.17
2023-01-24T22:33:18.721Z,75.87
2023-01-24T22:35:48.793Z,75.86
2023-01-24T22:38:16.714Z,76.75
2023-01-24T22:40:45.894Z,77.00
2023-01-24T22:43:14.793Z,76.55
2023-01-24T22:45:42.662Z,77.34
2023-01-24T22:48:14.698Z,77.11
2023-01-24T22:50:42.795Z,77.07
2023-01-24T22:53:11.570Z,77.28
2023-01-24T22:55:39.722Z,77.03
2023-01-24T22:58:09.250Z,77.11
2023-01-24T23:00:37.268Z,77.49
2023-01-24T23:03:05.348Z,77.19
2023-01-24T23:05:33.211Z,77.64
2023-01-24T23:08:01.153Z,76.93
2023-01-24T23:10:29.190Z,77.36
2023-01-24T23:13:14.785Z,76.23
2023-01-24T23:16:01.443Z,75.77
2023-01-24T23:18:43.817Z,76.67
2023-01-24T23:21:31.192Z,77.81
2023-01-24T23:23:59.658Z,77.99
2023-01-24T23:26:27.810Z,79.44
2023-01-24T23:29:06.123Z,79.64
2023-01-24T23:31:35.510Z,79.37
2023-01-24T23:34:03.929Z,79.40
2023-01-24T23:36:33.889Z,79.10
2023-01-24T23:39:01.701Z,78.71
2023-01-24T23:41:29.508Z,79.17
2023-01-24T23:43:57.309Z,78.93
2023-01-24T23:46:25.177Z,78.56
2023-01-24T23:48:56.174Z,78.75
2023-01-24T23:51:25.270Z,78.74
2023-01-24T23:53:54.277Z,78.23
2023-01-24T23:56:23.020Z,78.65
2023-01-24T23:58:50.900Z,78.58
